sensor_id;sensor_type;location;lat;lon;timestamp;P1;durP1;ratioP1;P2;durP2;ratioP2
4676;SDS011;2352;48.180;11.478;2022-12-07T00:01:54;8.80;;;8.00;;
4676;SDS011;2352;48.180;11.478;2022-12-07T00:04:58;9.63;;;8.83;;
4676;SDS011;2352;48.180;11.478;2022-12-07T00:08:01;11.13;;;10.00;;
4676;SDS011;2352;48.180;11.478;2022-12-07T00:11:04;9.07;;;8.43;;
4676;SDS011;2352;48.180;11.478;2022-12-07T00:14:10;8.83;;;8.23;;
4676;SDS011;2352;48.180;11.478;2022-12-07T00:17:14;8.20;;;7.57;;
4676;SDS011;2352;48.180;11.478;2022-12-07T00:20:18;8.30;;;7.70;;
4676;SDS011;2352;48.180;11.478;2022-12-07T00:23:21;8.07;;;7.37;;
4676;SDS011;2352;48.180;11.478;2022-12-07T00:26:25;9.43;;;8.73;;
4676;SDS011;2352;48.180;11.478;2022-12-07T00:29:29;8.17;;;7.57;;
4676;SDS011;2352;48.180;11.478;2022-12-07T00:32:32;8.53;;;7.93;;
4676;SDS011;2352;48.180;11.478;2022-12-07T00:35:36;7.60;;;7.10;;
4676;SDS011;2352;48.180;11.478;2022-12-07T00:38:40;8.17;;;7.57;;
4676;SDS011;2352;48.180;11.478;2022-12-07T00:41:43;9.60;;;8.90;;
4676;SDS011;2352;48.180;11.478;2022-12-07T00:44:46;9.07;;;8.43;;
4676;SDS011;2352;48.180;11.478;2022-12-07T00:47:49;8.37;;;7.80;;
4676;SDS011;2352;48.180;11.478;2022-12-07T00:50:53;9.67;;;8.87;;
4676;SDS011;2352;48.180;11.478;2022-12-07T00:53:56;8.63;;;7.93;;
4676;SDS011;2352;48.180;11.478;2022-12-07T00:56:59;8.90;;;8.30;;
4676;SDS011;2352;48.180;11.478;2022-12-07T01:00:02;8.87;;;8.17;;
4676;SDS011;2352;48.180;11.478;2022-12-07T01:03:06;8.33;;;7.73;;
4676;SDS011;2352;48.180;11.478;2022-12-07T01:06:14;10.03;;;9.23;;
4676;SDS011;2352;48.180;11.478;2022-12-07T01:09:18;9.03;;;8.23;;
4676;SDS011;2352;48.180;11.478;2022-12-07T01:12:21;8.70;;;8.00;;
4676;SDS011;2352;48.180;11.478;2022-12-07T01:15:24;8.50;;;7.77;;
4676;SDS011;2352;48.180;11.478;2022-12-07T01:18:28;9.47;;;8.57;;
4676;SDS011;2352;48.180;11.478;2022-12-07T01:21:34;8.93;;;8.13;;
4676;SDS011;2352;48.180;11.478;2022-12-07T01:24:39;8.03;;;7.33;;
4676;SDS011;2352;48.180;11.478;2022-12-07T01:27:42;8.40;;;7.77;;
4676;SDS011;2352;48.180;11.478;2022-12-07T01:30:44;9.67;;;8.90;;
4676;SDS011;2352;48.180;11.478;2022-12-07T01:33:57;7.60;;;7.07;;
4676;SDS011;2352;48.180;11.478;2022-12-07T01:37:03;8.93;;;8.23;;
4676;SDS011;2352;48.180;11.478;2022-12-07T01:40:07;9.33;;;8.63;;
4676;SDS011;2352;48.180;11.478;2022-12-07T01:43:13;8.43;;;7.83;;
4676;SDS011;2352;48.180;11.478;2022-12-07T01:46:19;9.23;;;8.53;;
4676;SDS011;2352;48.180;11.478;2022-12-07T01:49:25;11.03;;;8.53;;
4676;SDS011;2352;48.180;11.478;2022-12-07T01:52:33;8.57;;;7.87;;
4676;SDS011;2352;48.180;11.478;2022-12-07T01:55:40;8.00;;;7.33;;
4676;SDS011;2352;48.180;11.478;2022-12-07T01:58:45;8.43;;;7.83;;
4676;SDS011;2352;48.180;11.478;2022-12-07T02:01:50;7.77;;;7.17;;
4676;SDS011;2352;48.180;11.478;2022-12-07T02:04:53;8.10;;;7.53;;
4676;SDS011;2352;48.180;11.478;2022-12-07T02:08:00;7.50;;;6.90;;
4676;SDS011;2352;48.180;11.478;2022-12-07T02:11:05;8.97;;;8.17;;
4676;SDS011;2352;48.180;11.478;2022-12-07T02:14:10;9.00;;;8.30;;
4676;SDS011;2352;48.180;11.478;2022-12-07T02:17:14;8.37;;;7.77;;
4676;SDS011;2352;48.180;11.478;2022-12-07T02:20:25;8.20;;;7.60;;
4676;SDS011;2352;48.180;11.478;2022-12-07T02:23:39;8.77;;;8.13;;
4676;SDS011;2352;48.180;11.478;2022-12-07T02:26:50;7.50;;;6.93;;
4676;SDS011;2352;48.180;11.478;2022-12-07T02:30:14;8.00;;;7.50;;
4676;SDS011;2352;48.180;11.478;2022-12-07T02:33:21;8.03;;;7.43;;
4676;SDS011;2352;48.180;11.478;2022-12-07T02:36:31;7.93;;;7.33;;
4676;SDS011;2352;48.180;11.478;2022-12-07T02:39:41;8.60;;;8.00;;
4676;SDS011;2352;48.180;11.478;2022-12-07T02:42:49;8.50;;;7.90;;
4676;SDS011;2352;48.180;11.478;2022-12-07T02:46:00;8.40;;;7.80;;
4676;SDS011;2352;48.180;11.478;2022-12-07T02:49:06;9.07;;;8.47;;
4676;SDS011;2352;48.180;11.478;2022-12-07T02:52:10;8.33;;;7.73;;
4676;SDS011;2352;48.180;11.478;2022-12-07T02:55:13;9.03;;;8.33;;
4676;SDS011;2352;48.180;11.478;2022-12-07T02:58:23;9.33;;;8.63;;
4676;SDS011;2352;48.180;11.478;2022-12-07T03:01:38;8.40;;;7.77;;
4676;SDS011;2352;48.180;11.478;2022-12-07T03:04:50;8.33;;;7.73;;
4676;SDS011;2352;48.180;11.478;2022-12-07T03:08:00;9.60;;;8.90;;
4676;SDS011;2352;48.180;11.478;2022-12-07T03:11:08;8.67;;;8.07;;
4676;SDS011;2352;48.180;11.478;2022-12-07T03:14:20;8.37;;;7.73;;
4676;SDS011;2352;48.180;11.478;2022-12-07T03:17:30;9.33;;;8.67;;
4676;SDS011;2352;48.180;11.478;2022-12-07T03:20:36;9.20;;;8.37;;
4676;SDS011;2352;48.180;11.478;2022-12-07T03:23:42;10.43;;;9.70;;
4676;SDS011;2352;48.180;11.478;2022-12-07T03:26:51;10.03;;;9.30;;
4676;SDS011;2352;48.180;11.478;2022-12-07T03:29:58;8.37;;;7.77;;
4676;SDS011;2352;48.180;11.478;2022-12-07T03:33:06;9.07;;;8.40;;
4676;SDS011;2352;48.180;11.478;2022-12-07T03:36:15;8.40;;;7.77;;
4676;SDS011;2352;48.180;11.478;2022-12-07T03:39:23;8.13;;;7.63;;
4676;SDS011;2352;48.180;11.478;2022-12-07T03:42:30;9.87;;;9.07;;
4676;SDS011;2352;48.180;11.478;2022-12-07T03:45:37;10.00;;;9.30;;
4676;SDS011;2352;48.180;11.478;2022-12-07T03:48:45;8.90;;;8.27;;
4676;SDS011;2352;48.180;11.478;2022-12-07T03:51:55;9.57;;;8.77;;
4676;SDS011;2352;48.180;11.478;2022-12-07T03:55:05;9.57;;;8.87;;
4676;SDS011;2352;48.180;11.478;2022-12-07T03:58:12;9.83;;;9.10;;
4676;SDS011;2352;48.180;11.478;2022-12-07T04:01:18;9.83;;;9.03;;
4676;SDS011;2352;48.180;11.478;2022-12-07T04:04:23;9.83;;;9.03;;
4676;SDS011;2352;48.180;11.478;2022-12-07T04:07:27;8.70;;;8.10;;
4676;SDS011;2352;48.180;11.478;2022-12-07T04:10:30;8.77;;;8.10;;
4676;SDS011;2352;48.180;11.478;2022-12-07T04:13:33;9.50;;;8.80;;
4676;SDS011;2352;48.180;11.478;2022-12-07T04:16:57;9.13;;;8.43;;
4676;SDS011;2352;48.180;11.478;2022-12-07T04:20:02;8.17;;;7.57;;
4676;SDS011;2352;48.180;11.478;2022-12-07T04:23:06;8.43;;;7.73;;
4676;SDS011;2352;48.180;11.478;2022-12-07T04:26:09;8.90;;;8.23;;
4676;SDS011;2352;48.180;11.478;2022-12-07T04:29:12;8.37;;;7.70;;
4676;SDS011;2352;48.180;11.478;2022-12-07T04:32:16;9.73;;;8.90;;
4676;SDS011;2352;48.180;11.478;2022-12-07T04:35:20;10.67;;;9.77;;
4676;SDS011;2352;48.180;11.478;2022-12-07T04:38:23;8.57;;;7.93;;
4676;SDS011;2352;48.180;11.478;2022-12-07T04:41:26;9.73;;;8.93;;
4676;SDS011;2352;48.180;11.478;2022-12-07T04:44:29;9.23;;;8.53;;
4676;SDS011;2352;48.180;11.478;2022-12-07T04:47:32;9.77;;;9.07;;
4676;SDS011;2352;48.180;11.478;2022-12-07T04:50:37;8.90;;;8.23;;
4676;SDS011;2352;48.180;11.478;2022-12-07T04:53:46;10.10;;;9.10;;
4676;SDS011;2352;48.180;11.478;2022-12-07T04:56:49;9.43;;;8.73;;
4676;SDS011;2352;48.180;11.478;2022-12-07T04:59:52;12.93;;;11.73;;
4676;SDS011;2352;48.180;11.478;2022-12-07T05:02:55;12.80;;;11.80;;
4676;SDS011;2352;48.180;11.478;2022-12-07T05:05:59;16.67;;;15.13;;
4676;SDS011;2352;48.180;11.478;2022-12-07T05:09:03;14.27;;;12.97;;
4676;SDS011;2352;48.180;11.478;2022-12-07T05:12:06;16.20;;;14.63;;
4676;SDS011;2352;48.180;11.478;2022-12-07T05:15:09;15.33;;;13.93;;
4676;SDS011;2352;48.180;11.478;2022-12-07T05:18:12;13.10;;;12.03;;
4676;SDS011;2352;48.180;11.478;2022-12-07T05:21:16;10.93;;;10.03;;
4676;SDS011;2352;48.180;11.478;2022-12-07T05:24:19;14.50;;;13.20;;
4676;SDS011;2352;48.180;11.478;2022-12-07T05:27:22;14.70;;;13.37;;
4676;SDS011;2352;48.180;11.478;2022-12-07T05:30:25;15.03;;;13.63;;
4676;SDS011;2352;48.180;11.478;2022-12-07T05:33:31;16.23;;;14.63;;
4676;SDS011;2352;48.180;11.478;2022-12-07T05:36:36;14.50;;;13.23;;
4676;SDS011;2352;48.180;11.478;2022-12-07T05:39:38;14.70;;;13.30;;
4676;SDS011;2352;48.180;11.478;2022-12-07T05:42:43;14.80;;;13.60;;
4676;SDS011;2352;48.180;11.478;2022-12-07T05:45:46;16.00;;;14.63;;
4676;SDS011;2352;48.180;11.478;2022-12-07T05:48:49;13.27;;;12.27;;
4676;SDS011;2352;48.180;11.478;2022-12-07T05:51:54;12.40;;;11.50;;
4676;SDS011;2352;48.180;11.478;2022-12-07T05:54:56;11.50;;;10.50;;
4676;SDS011;2352;48.180;11.478;2022-12-07T05:57:59;24.77;;;22.13;;
4676;SDS011;2352;48.180;11.478;2022-12-07T06:01:20;13.50;;;12.40;;
4676;SDS011;2352;48.180;11.478;2022-12-07T06:04:23;11.37;;;10.47;;
4676;SDS011;2352;48.180;11.478;2022-12-07T06:07:29;11.43;;;10.53;;
4676;SDS011;2352;48.180;11.478;2022-12-07T06:10:32;10.83;;;10.03;;
4676;SDS011;2352;48.180;11.478;2022-12-07T06:13:35;11.30;;;10.30;;
4676;SDS011;2352;48.180;11.478;2022-12-07T06:16:41;12.63;;;11.73;;
4676;SDS011;2352;48.180;11.478;2022-12-07T06:19:44;16.60;;;15.07;;
4676;SDS011;2352;48.180;11.478;2022-12-07T06:22:49;15.47;;;14.33;;
4676;SDS011;2352;48.180;11.478;2022-12-07T06:25:51;15.37;;;14.27;;
4676;SDS011;2352;48.180;11.478;2022-12-07T06:28:54;13.67;;;12.67;;
4676;SDS011;2352;48.180;11.478;2022-12-07T06:31:57;12.03;;;11.10;;
4676;SDS011;2352;48.180;11.478;2022-12-07T06:35:00;15.20;;;13.23;;
4676;SDS011;2352;48.180;11.478;2022-12-07T06:38:05;18.70;;;15.90;;
4676;SDS011;2352;48.180;11.478;2022-12-07T06:41:08;13.60;;;12.40;;
4676;SDS011;2352;48.180;11.478;2022-12-07T06:44:11;14.60;;;13.27;;
4676;SDS011;2352;48.180;11.478;2022-12-07T06:47:13;14.97;;;13.53;;
4676;SDS011;2352;48.180;11.478;2022-12-07T06:50:36;13.30;;;12.10;;
4676;SDS011;2352;48.180;11.478;2022-12-07T06:53:41;13.43;;;12.23;;
4676;SDS011;2352;48.180;11.478;2022-12-07T06:56:43;13.20;;;12.00;;
4676;SDS011;2352;48.180;11.478;2022-12-07T06:59:46;11.47;;;10.47;;
4676;SDS011;2352;48.180;11.478;2022-12-07T07:02:49;14.07;;;12.77;;
4676;SDS011;2352;48.180;11.478;2022-12-07T07:05:52;14.27;;;12.90;;
4676;SDS011;2352;48.180;11.478;2022-12-07T07:08:56;14.03;;;11.97;;
4676;SDS011;2352;48.180;11.478;2022-12-07T07:12:00;14.73;;;13.23;;
4676;SDS011;2352;48.180;11.478;2022-12-07T07:15:03;16.07;;;14.47;;
4676;SDS011;2352;48.180;11.478;2022-12-07T07:18:07;14.77;;;13.37;;
4676;SDS011;2352;48.180;11.478;2022-12-07T07:21:10;16.33;;;14.83;;
4676;SDS011;2352;48.180;11.478;2022-12-07T07:24:14;14.80;;;13.50;;
4676;SDS011;2352;48.180;11.478;2022-12-07T07:27:17;12.53;;;11.43;;
4676;SDS011;2352;48.180;11.478;2022-12-07T07:30:20;12.40;;;11.20;;
4676;SDS011;2352;48.180;11.478;2022-12-07T07:33:23;15.57;;;13.43;;
4676;SDS011;2352;48.180;11.478;2022-12-07T07:36:26;24.93;;;14.63;;
4676;SDS011;2352;48.180;11.478;2022-12-07T07:39:30;13.57;;;12.30;;
4676;SDS011;2352;48.180;11.478;2022-12-07T07:42:33;15.87;;;13.13;;
4676;SDS011;2352;48.180;11.478;2022-12-07T07:45:36;15.23;;;13.63;;
4676;SDS011;2352;48.180;11.478;2022-12-07T07:48:39;16.67;;;13.17;;
4676;SDS011;2352;48.180;11.478;2022-12-07T07:51:42;15.30;;;13.67;;
4676;SDS011;2352;48.180;11.478;2022-12-07T07:54:47;25.20;;;14.67;;
4676;SDS011;2352;48.180;11.478;2022-12-07T07:57:49;15.03;;;12.63;;
4676;SDS011;2352;48.180;11.478;2022-12-07T08:00:55;14.57;;;13.37;;
4676;SDS011;2352;48.180;11.478;2022-12-07T08:03:58;16.00;;;14.07;;
4676;SDS011;2352;48.180;11.478;2022-12-07T08:07:01;15.27;;;13.87;;
4676;SDS011;2352;48.180;11.478;2022-12-07T08:10:06;14.63;;;13.30;;
4676;SDS011;2352;48.180;11.478;2022-12-07T08:13:11;16.47;;;14.83;;
4676;SDS011;2352;48.180;11.478;2022-12-07T08:16:15;14.30;;;13.03;;
4676;SDS011;2352;48.180;11.478;2022-12-07T08:19:18;14.97;;;13.77;;
4676;SDS011;2352;48.180;11.478;2022-12-07T08:22:21;16.97;;;15.23;;
4676;SDS011;2352;48.180;11.478;2022-12-07T08:25:25;15.23;;;13.90;;
4676;SDS011;2352;48.180;11.478;2022-12-07T08:28:29;17.60;;;14.70;;
4676;SDS011;2352;48.180;11.478;2022-12-07T08:31:32;16.63;;;14.93;;
4676;SDS011;2352;48.180;11.478;2022-12-07T08:34:36;17.77;;;14.37;;
4676;SDS011;2352;48.180;11.478;2022-12-07T08:37:39;16.57;;;14.87;;
4676;SDS011;2352;48.180;11.478;2022-12-07T08:40:44;14.87;;;13.50;;
4676;SDS011;2352;48.180;11.478;2022-12-07T08:43:47;15.63;;;14.27;;
4676;SDS011;2352;48.180;11.478;2022-12-07T08:46:51;13.97;;;12.77;;
4676;SDS011;2352;48.180;11.478;2022-12-07T08:49:56;14.93;;;13.73;;
4676;SDS011;2352;48.180;11.478;2022-12-07T08:53:04;14.43;;;13.13;;
4676;SDS011;2352;48.180;11.478;2022-12-07T08:56:10;15.17;;;13.80;;
4676;SDS011;2352;48.180;11.478;2022-12-07T08:59:13;14.40;;;13.10;;
4676;SDS011;2352;48.180;11.478;2022-12-07T09:02:18;15.10;;;13.77;;
4676;SDS011;2352;48.180;11.478;2022-12-07T09:05:21;16.30;;;14.73;;
4676;SDS011;2352;48.180;11.478;2022-12-07T09:08:26;14.80;;;13.50;;
4676;SDS011;2352;48.180;11.478;2022-12-07T09:11:33;14.07;;;12.83;;
4676;SDS011;2352;48.180;11.478;2022-12-07T09:14:36;14.20;;;13.00;;
4676;SDS011;2352;48.180;11.478;2022-12-07T09:17:39;14.10;;;12.90;;
4676;SDS011;2352;48.180;11.478;2022-12-07T09:20:42;13.57;;;12.47;;
4676;SDS011;2352;48.180;11.478;2022-12-07T09:23:45;14.63;;;13.40;;
4676;SDS011;2352;48.180;11.478;2022-12-07T09:26:49;14.67;;;13.27;;
4676;SDS011;2352;48.180;11.478;2022-12-07T09:29:52;13.23;;;12.07;;
4676;SDS011;2352;48.180;11.478;2022-12-07T09:32:55;12.87;;;11.77;;
4676;SDS011;2352;48.180;11.478;2022-12-07T09:35:59;14.77;;;13.47;;
4676;SDS011;2352;48.180;11.478;2022-12-07T09:39:02;14.70;;;12.83;;
4676;SDS011;2352;48.180;11.478;2022-12-07T09:42:07;15.10;;;13.60;;
4676;SDS011;2352;48.180;11.478;2022-12-07T09:45:13;13.73;;;12.47;;
4676;SDS011;2352;48.180;11.478;2022-12-07T09:48:19;13.30;;;12.13;;
4676;SDS011;2352;48.180;11.478;2022-12-07T09:51:26;13.90;;;12.70;;
4676;SDS011;2352;48.180;11.478;2022-12-07T09:54:29;14.83;;;13.43;;
4676;SDS011;2352;48.180;11.478;2022-12-07T09:57:34;14.50;;;13.30;;
4676;SDS011;2352;48.180;11.478;2022-12-07T10:00:38;14.13;;;12.90;;
4676;SDS011;2352;48.180;11.478;2022-12-07T10:03:44;14.00;;;12.70;;
4676;SDS011;2352;48.180;11.478;2022-12-07T10:06:51;14.03;;;12.73;;
4676;SDS011;2352;48.180;11.478;2022-12-07T10:09:54;13.23;;;12.13;;
4676;SDS011;2352;48.180;11.478;2022-12-07T10:12:59;15.30;;;13.90;;
4676;SDS011;2352;48.180;11.478;2022-12-07T10:16:04;14.23;;;13.03;;
4676;SDS011;2352;48.180;11.478;2022-12-07T10:19:19;14.50;;;13.23;;
4676;SDS011;2352;48.180;11.478;2022-12-07T10:22:25;13.60;;;12.40;;
4676;SDS011;2352;48.180;11.478;2022-12-07T10:25:32;12.23;;;11.17;;
4676;SDS011;2352;48.180;11.478;2022-12-07T10:28:38;12.17;;;11.07;;
4676;SDS011;2352;48.180;11.478;2022-12-07T10:31:42;11.90;;;10.63;;
4676;SDS011;2352;48.180;11.478;2022-12-07T10:34:47;12.23;;;11.13;;
4676;SDS011;2352;48.180;11.478;2022-12-07T10:37:53;11.07;;;10.07;;
4676;SDS011;2352;48.180;11.478;2022-12-07T10:41:03;11.47;;;10.37;;
4676;SDS011;2352;48.180;11.478;2022-12-07T10:44:08;11.53;;;10.50;;
4676;SDS011;2352;48.180;11.478;2022-12-07T10:47:25;11.40;;;10.50;;
4676;SDS011;2352;48.180;11.478;2022-12-07T10:50:40;10.87;;;10.00;;
4676;SDS011;2352;48.180;11.478;2022-12-07T10:54:00;10.77;;;9.80;;
4676;SDS011;2352;48.180;11.478;2022-12-07T10:57:16;9.33;;;8.57;;
4676;SDS011;2352;48.180;11.478;2022-12-07T11:00:32;9.27;;;8.53;;
4676;SDS011;2352;48.180;11.478;2022-12-07T11:03:48;9.50;;;8.67;;
4676;SDS011;2352;48.180;11.478;2022-12-07T11:07:00;8.77;;;8.07;;
4676;SDS011;2352;48.180;11.478;2022-12-07T11:10:10;9.63;;;8.83;;
4676;SDS011;2352;48.180;11.478;2022-12-07T11:13:25;8.17;;;7.57;;
4676;SDS011;2352;48.180;11.478;2022-12-07T11:16:37;7.77;;;7.10;;
4676;SDS011;2352;48.180;11.478;2022-12-07T11:19:53;8.53;;;7.83;;
4676;SDS011;2352;48.180;11.478;2022-12-07T11:23:06;7.13;;;6.63;;
4676;SDS011;2352;48.180;11.478;2022-12-07T11:26:18;7.83;;;7.13;;
4676;SDS011;2352;48.180;11.478;2022-12-07T11:29:40;7.83;;;7.13;;
4676;SDS011;2352;48.180;11.478;2022-12-07T11:33:17;6.23;;;5.73;;
4676;SDS011;2352;48.180;11.478;2022-12-07T11:36:34;5.90;;;5.40;;
4676;SDS011;2352;48.180;11.478;2022-12-07T11:39:41;7.67;;;7.07;;
4676;SDS011;2352;48.180;11.478;2022-12-07T11:42:51;6.97;;;6.47;;
4676;SDS011;2352;48.180;11.478;2022-12-07T11:45:59;17.60;;;6.37;;
4676;SDS011;2352;48.180;11.478;2022-12-07T11:49:10;6.87;;;6.37;;
4676;SDS011;2352;48.180;11.478;2022-12-07T11:52:20;6.17;;;5.67;;
4676;SDS011;2352;48.180;11.478;2022-12-07T11:55:29;7.07;;;5.70;;
4676;SDS011;2352;48.180;11.478;2022-12-07T11:58:48;6.40;;;5.80;;
4676;SDS011;2352;48.180;11.478;2022-12-07T12:01:55;6.60;;;6.10;;
4676;SDS011;2352;48.180;11.478;2022-12-07T12:05:05;6.17;;;5.67;;
4676;SDS011;2352;48.180;11.478;2022-12-07T12:08:16;7.70;;;6.97;;
4676;SDS011;2352;48.180;11.478;2022-12-07T12:11:50;9.97;;;6.83;;
4676;SDS011;2352;48.180;11.478;2022-12-07T12:15:38;7.43;;;6.83;;
4676;SDS011;2352;48.180;11.478;2022-12-07T12:18:57;8.17;;;7.37;;
4676;SDS011;2352;48.180;11.478;2022-12-07T12:22:14;7.43;;;6.83;;
4676;SDS011;2352;48.180;11.478;2022-12-07T12:25:21;7.80;;;7.03;;
4676;SDS011;2352;48.180;11.478;2022-12-07T12:28:26;8.83;;;7.90;;
4676;SDS011;2352;48.180;11.478;2022-12-07T12:31:35;7.87;;;7.17;;
4676;SDS011;2352;48.180;11.478;2022-12-07T12:34:41;8.13;;;7.23;;
4676;SDS011;2352;48.180;11.478;2022-12-07T12:45:19;8.87;;;8.00;;
4676;SDS011;2352;48.180;11.478;2022-12-07T12:48:27;10.23;;;8.00;;
4676;SDS011;2352;48.180;11.478;2022-12-07T12:51:37;7.80;;;7.20;;
4676;SDS011;2352;48.180;11.478;2022-12-07T12:54:57;7.87;;;7.00;;
4676;SDS011;2352;48.180;11.478;2022-12-07T12:58:28;9.20;;;6.97;;
4676;SDS011;2352;48.180;11.478;2022-12-07T13:01:38;8.37;;;7.63;;
4676;SDS011;2352;48.180;11.478;2022-12-07T13:07:57;7.87;;;7.27;;
4676;SDS011;2352;48.180;11.478;2022-12-07T13:11:16;6.83;;;6.23;;
4676;SDS011;2352;48.180;11.478;2022-12-07T13:14:35;7.07;;;6.53;;
4676;SDS011;2352;48.180;11.478;2022-12-07T13:18:02;6.67;;;6.17;;
4676;SDS011;2352;48.180;11.478;2022-12-07T13:21:43;6.77;;;6.17;;
4676;SDS011;2352;48.180;11.478;2022-12-07T13:24:46;7.73;;;7.07;;
4676;SDS011;2352;48.180;11.478;2022-12-07T13:27:54;9.87;;;7.77;;
4676;SDS011;2352;48.180;11.478;2022-12-07T13:34:33;8.27;;;7.57;;
4676;SDS011;2352;48.180;11.478;2022-12-07T13:37:37;8.53;;;7.00;;
4676;SDS011;2352;48.180;11.478;2022-12-07T13:40:40;7.57;;;6.97;;
4676;SDS011;2352;48.180;11.478;2022-12-07T13:43:46;9.13;;;8.23;;
4676;SDS011;2352;48.180;11.478;2022-12-07T13:46:53;13.60;;;7.70;;
4676;SDS011;2352;48.180;11.478;2022-12-07T13:50:01;8.83;;;7.53;;
4676;SDS011;2352;48.180;11.478;2022-12-07T13:53:23;9.17;;;8.37;;
4676;SDS011;2352;48.180;11.478;2022-12-07T13:56:31;8.43;;;7.57;;
4676;SDS011;2352;48.180;11.478;2022-12-07T13:59:37;8.10;;;7.40;;
4676;SDS011;2352;48.180;11.478;2022-12-07T14:02:53;8.37;;;7.77;;
4676;SDS011;2352;48.180;11.478;2022-12-07T14:06:06;7.80;;;7.10;;
4676;SDS011;2352;48.180;11.478;2022-12-07T14:09:17;10.13;;;7.97;;
4676;SDS011;2352;48.180;11.478;2022-12-07T14:12:22;7.40;;;6.77;;
4676;SDS011;2352;48.180;11.478;2022-12-07T14:15:28;6.00;;;5.60;;
4676;SDS011;2352;48.180;11.478;2022-12-07T14:18:36;7.20;;;6.03;;
4676;SDS011;2352;48.180;11.478;2022-12-07T14:21:39;6.27;;;5.77;;
4676;SDS011;2352;48.180;11.478;2022-12-07T14:24:42;5.93;;;5.30;;
4676;SDS011;2352;48.180;11.478;2022-12-07T14:27:53;5.77;;;5.27;;
4676;SDS011;2352;48.180;11.478;2022-12-07T14:31:00;5.07;;;4.57;;
4676;SDS011;2352;48.180;11.478;2022-12-07T14:34:04;6.27;;;5.13;;
4676;SDS011;2352;48.180;11.478;2022-12-07T14:37:07;7.17;;;5.80;;
4676;SDS011;2352;48.180;11.478;2022-12-07T14:40:12;7.33;;;5.97;;
4676;SDS011;2352;48.180;11.478;2022-12-07T14:43:16;5.77;;;5.37;;
4676;SDS011;2352;48.180;11.478;2022-12-07T14:46:22;5.07;;;4.67;;
4676;SDS011;2352;48.180;11.478;2022-12-07T14:49:25;6.03;;;5.53;;
4676;SDS011;2352;48.180;11.478;2022-12-07T14:52:35;7.87;;;6.43;;
4676;SDS011;2352;48.180;11.478;2022-12-07T14:55:58;6.57;;;5.97;;
4676;SDS011;2352;48.180;11.478;2022-12-07T14:59:01;7.33;;;6.63;;
4676;SDS011;2352;48.180;11.478;2022-12-07T15:02:05;7.53;;;6.73;;
4676;SDS011;2352;48.180;11.478;2022-12-07T15:05:11;14.80;;;8.13;;
4676;SDS011;2352;48.180;11.478;2022-12-07T15:08:17;8.17;;;7.53;;
4676;SDS011;2352;48.180;11.478;2022-12-07T15:11:20;7.63;;;6.93;;
4676;SDS011;2352;48.180;11.478;2022-12-07T15:14:23;8.60;;;7.90;;
4676;SDS011;2352;48.180;11.478;2022-12-07T15:17:27;9.07;;;8.23;;
4676;SDS011;2352;48.180;11.478;2022-12-07T15:20:32;8.80;;;8.10;;
4676;SDS011;2352;48.180;11.478;2022-12-07T15:23:35;8.47;;;7.83;;
4676;SDS011;2352;48.180;11.478;2022-12-07T15:26:38;8.10;;;7.50;;
4676;SDS011;2352;48.180;11.478;2022-12-07T15:29:42;8.60;;;7.90;;
4676;SDS011;2352;48.180;11.478;2022-12-07T15:32:49;9.00;;;8.23;;
4676;SDS011;2352;48.180;11.478;2022-12-07T15:35:52;9.00;;;8.30;;
4676;SDS011;2352;48.180;11.478;2022-12-07T15:38:55;9.17;;;8.30;;
4676;SDS011;2352;48.180;11.478;2022-12-07T15:42:14;8.30;;;7.60;;
4676;SDS011;2352;48.180;11.478;2022-12-07T15:45:17;8.63;;;7.93;;
4676;SDS011;2352;48.180;11.478;2022-12-07T15:48:22;9.13;;;8.43;;
4676;SDS011;2352;48.180;11.478;2022-12-07T15:51:29;10.23;;;9.33;;
4676;SDS011;2352;48.180;11.478;2022-12-07T15:54:32;10.13;;;9.33;;
4676;SDS011;2352;48.180;11.478;2022-12-07T15:57:36;9.47;;;8.77;;
4676;SDS011;2352;48.180;11.478;2022-12-07T16:00:40;10.37;;;9.43;;
4676;SDS011;2352;48.180;11.478;2022-12-07T16:03:44;9.77;;;8.93;;
4676;SDS011;2352;48.180;11.478;2022-12-07T16:06:47;9.27;;;8.47;;
4676;SDS011;2352;48.180;11.478;2022-12-07T16:09:52;9.27;;;8.47;;
4676;SDS011;2352;48.180;11.478;2022-12-07T16:12:55;10.00;;;9.20;;
4676;SDS011;2352;48.180;11.478;2022-12-07T16:15:57;9.83;;;9.03;;
4676;SDS011;2352;48.180;11.478;2022-12-07T16:19:05;10.50;;;9.70;;
4676;SDS011;2352;48.180;11.478;2022-12-07T16:22:09;9.57;;;8.77;;
4676;SDS011;2352;48.180;11.478;2022-12-07T16:25:11;9.90;;;9.10;;
4676;SDS011;2352;48.180;11.478;2022-12-07T16:28:14;10.17;;;9.30;;
4676;SDS011;2352;48.180;11.478;2022-12-07T16:31:19;10.70;;;9.90;;
4676;SDS011;2352;48.180;11.478;2022-12-07T16:34:24;11.73;;;10.67;;
4676;SDS011;2352;48.180;11.478;2022-12-07T16:37:27;11.23;;;10.20;;
4676;SDS011;2352;48.180;11.478;2022-12-07T16:40:30;12.53;;;11.40;;
4676;SDS011;2352;48.180;11.478;2022-12-07T16:43:33;12.37;;;11.33;;
4676;SDS011;2352;48.180;11.478;2022-12-07T16:46:37;11.63;;;10.57;;
4676;SDS011;2352;48.180;11.478;2022-12-07T16:49:41;12.60;;;11.40;;
4676;SDS011;2352;48.180;11.478;2022-12-07T16:52:45;14.27;;;12.83;;
4676;SDS011;2352;48.180;11.478;2022-12-07T16:55:48;15.47;;;12.83;;
4676;SDS011;2352;48.180;11.478;2022-12-07T16:58:51;14.90;;;13.43;;
4676;SDS011;2352;48.180;11.478;2022-12-07T17:01:54;14.67;;;13.27;;
4676;SDS011;2352;48.180;11.478;2022-12-07T17:04:58;13.67;;;12.27;;
4676;SDS011;2352;48.180;11.478;2022-12-07T17:08:02;13.57;;;12.47;;
4676;SDS011;2352;48.180;11.478;2022-12-07T17:11:09;13.53;;;12.00;;
4676;SDS011;2352;48.180;11.478;2022-12-07T17:14:13;16.87;;;14.03;;
4676;SDS011;2352;48.180;11.478;2022-12-07T17:17:33;16.83;;;13.87;;
4676;SDS011;2352;48.180;11.478;2022-12-07T17:20:37;17.30;;;14.07;;
4676;SDS011;2352;48.180;11.478;2022-12-07T17:23:40;16.43;;;14.57;;
4676;SDS011;2352;48.180;11.478;2022-12-07T17:26:44;18.57;;;15.30;;
4676;SDS011;2352;48.180;11.478;2022-12-07T17:29:47;22.50;;;17.47;;
4676;SDS011;2352;48.180;11.478;2022-12-07T17:32:51;17.83;;;15.93;;
4676;SDS011;2352;48.180;11.478;2022-12-07T17:35:55;19.60;;;16.27;;
4676;SDS011;2352;48.180;11.478;2022-12-07T17:38:58;15.90;;;14.30;;
4676;SDS011;2352;48.180;11.478;2022-12-07T17:42:01;17.67;;;15.77;;
4676;SDS011;2352;48.180;11.478;2022-12-07T17:45:21;18.93;;;14.67;;
4676;SDS011;2352;48.180;11.478;2022-12-07T17:48:24;19.67;;;15.97;;
4676;SDS011;2352;48.180;11.478;2022-12-07T17:51:29;19.90;;;15.87;;
4676;SDS011;2352;48.180;11.478;2022-12-07T17:54:51;20.40;;;14.73;;
4676;SDS011;2352;48.180;11.478;2022-12-07T17:57:53;23.80;;;15.07;;
4676;SDS011;2352;48.180;11.478;2022-12-07T18:00:56;16.47;;;13.87;;
4676;SDS011;2352;48.180;11.478;2022-12-07T18:03:59;23.20;;;18.03;;
4676;SDS011;2352;48.180;11.478;2022-12-07T18:07:04;19.27;;;17.30;;
4676;SDS011;2352;48.180;11.478;2022-12-07T18:10:07;20.67;;;17.43;;
4676;SDS011;2352;48.180;11.478;2022-12-07T18:13:12;16.17;;;14.40;;
4676;SDS011;2352;48.180;11.478;2022-12-07T18:16:33;16.03;;;14.53;;
4676;SDS011;2352;48.180;11.478;2022-12-07T18:19:36;16.33;;;14.57;;
4676;SDS011;2352;48.180;11.478;2022-12-07T18:22:41;15.87;;;14.27;;
4676;SDS011;2352;48.180;11.478;2022-12-07T18:25:45;15.77;;;14.10;;
4676;SDS011;2352;48.180;11.478;2022-12-07T18:28:49;14.83;;;13.47;;
4676;SDS011;2352;48.180;11.478;2022-12-07T18:31:52;14.73;;;13.13;;
4676;SDS011;2352;48.180;11.478;2022-12-07T18:34:55;14.47;;;13.10;;
4676;SDS011;2352;48.180;11.478;2022-12-07T18:38:00;17.87;;;15.03;;
4676;SDS011;2352;48.180;11.478;2022-12-07T18:41:05;16.37;;;14.50;;
4676;SDS011;2352;48.180;11.478;2022-12-07T18:44:09;14.93;;;13.50;;
4676;SDS011;2352;48.180;11.478;2022-12-07T18:47:13;16.27;;;14.30;;
4676;SDS011;2352;48.180;11.478;2022-12-07T18:50:16;16.50;;;14.90;;
4676;SDS011;2352;48.180;11.478;2022-12-07T18:53:20;16.97;;;14.73;;
4676;SDS011;2352;48.180;11.478;2022-12-07T18:56:24;17.10;;;15.40;;
4676;SDS011;2352;48.180;11.478;2022-12-07T18:59:27;15.17;;;13.77;;